Down Up Stop Top

TXC259
There are no active watches, warnings or advisories

Record high temperature 126.3°F Record low temperature 13.3°F Record high gust 49.5 mph Record high average 32.4 mph Record daily rain 4.23 in. Record low windchill 4.3°F Record high barometer 30.667 in. Record low barometer 28.496 in.
Daily high pressure 30.076 in. Daily low pressure 29.929 in. Daily low windchill 19.9°F Daily high heat index 30.0°F Daily high gust speed 19.2 mph SSW Daily high average speed 13.0 mph SSE
Welfare-Texas Weather
LAST READING AT TIME: 23:30 DATE: March 31 2015, time of next update: 23:35
Current WeatherNight time/Dry Current Temperature 30.0°F (-1.1°C), Apparent temp 26.1°F
Maximum Temperature (since midnight)30.0°F at: 00:00 Minimum Temperature (since midnight)30.0°F at: 00:00
Average windspeed (ten minute)0.2 mph Wind Direction (ten minute)S (184°)
Windchill Temperature 30.0°F Maximum Gust (last hour)3.6 mph at: 23:04
Maximum Gust (since midnight)19.2 mph at: 00:37 Maximum 1 minute average (since midnight)13.0 mph at: 13:24
Rainfall (last hour)0.00 in. (0.0 mm) Rainfall (since midnight)0.00 in. (0.0 mm) ---
Rainfall This month 1.17 in. (29.7 mm) Rainfall To date this year 4.94 in. (125.5 mm)
Maximum rain per minute (last hour)0.00 in/min Maximum rain per hour (last 6 hours)0.00 in/hour
Yesterdays rainfall 0.00 in DewPoint 14.1°F (Wet Bulb :25.5°F )
Humidity 51 %, Humidex 22.9°F Barometer corrected to msl29.988 in. (1015.5 hPa)
Pressure change +0.03 in. (last hour) Trend (last hour)RISING SLOWLY
Pressure change (last 12 hours)-0.09 in Pressure change (last 6 hours)+0.03 in

This page is updated from recent data collected by a WMR200 weather station Use the Reload or Refresh facility on your browser to retrieve the latest data.


Click here for the last 24 hour graph
Click here for the last 48 hour graph
Click here for the last 72 hour graph
Click here for the month to date graph


Weather report/warning/Metars

SAN ANTONIO INTERNATIONAL  AIRPORT , TX, United States (KSAT) 29-32N 098-28W 243M
Mar 31, 2015 - 11:51 PM EDT / 2015.04.01 0351 UTC
Wind: from the S (170 degrees) at 9 MPH (8 KT):0
Visibility: 10 mile(s):0
Sky conditions: partly cloudy
Temperature: 70.0 F (21.1 C)
Dew Point: 64.0 F (17.8 C)
Relative Humidity: 81%
Pressure (altimeter): 29.98 in. Hg (1015 hPa)
ob: KSAT 010351Z 17008KT 10SM SCT029 SCT160 21/18 A2998 RMK AO2 SLP137 T02110178
cycle: 4
NEW BRAUNFELS MUNICIPAL AIRPORT, TX, United States (KBAZ) 29-43N 98-03W 195M
Mar 31, 2015 - 11:51 PM EDT / 2015.04.01 0351 UTC
Wind: from the S (190 degrees) at 10 MPH (9 KT):0
Visibility: 6 mile(s):0
Sky conditions: partly cloudy
Weather: mist
Temperature: 68.0 F (20.0 C)
Dew Point: 64.9 F (18.3 C)
Relative Humidity: 89%
Pressure (altimeter): 29.97 in. Hg (1014 hPa)
ob: KBAZ 010351Z AUTO 19009KT 6SM BR SCT021 20/18 A2997 RMK AO2 SLP140 T02000183
cycle: 4
Kerrville, Kerrville Municipal Airport/Louis Schreiner Field, TX, United States (KERV) 29-58N 099-05W
Mar 31, 2015 - 11:55 PM EDT / 2015.04.01 0355 UTC
Wind: from the SSE (150 degrees) at 6 MPH (5 KT):0
Visibility: 7 mile(s):0
Sky conditions: partly cloudy
Temperature: 63.9 F (17.7 C)
Dew Point: 61.7 F (16.5 C)
Relative Humidity: 92%
Pressure (altimeter): 30 in. Hg (1015 hPa)
ob: KERV 010355Z AUTO 15005KT 7SM SCT027 18/17 A3000 RMK AO2 T01770165
cycle: 4
BANGOR INT'L AIRPORT, ME, United States (KBGR) 44-48N 068-49W 57M
Mar 31, 2015 - 11:53 PM EDT / 2015.04.01 0353 UTC
Wind: from the WNW (300 degrees) at 10 MPH (9 KT):0
Visibility: 10 mile(s):0
Sky conditions: mostly cloudy
Temperature: 28.9 F (-1.7 C)
Windchill: 19 F (-7 C):1
Dew Point: 12.0 F (-11.1 C)
Relative Humidity: 48%
Pressure (altimeter): 29.8 in. Hg (1009 hPa)
ob: KBGR 010353Z 30009KT 10SM BKN250 M02/M11 A2980 RMK AO2 SLP092 T10171111
cycle: 4



The data is logged at two minute intervals, but there is data recorded every minute.

Use the RELOAD facility on your browser to retrieve the latest data.

Click here for a daily update of the averages/extremes to date for the month


Created by "Weather Display" software version 10.37R Build 23 at this start time/date 06:34 6/14/2014